Seacor Lynx — V7ZK9 — position and weather

sailwx.info

Track history (hours):
 
Tides and Currents Weather Stations Pressure Air Temp Water Temp Dewpoint Dewpoint Depression Visibility Wind Speed Wind Dir Waves Ship Positions

Seacor Lynx

Last reported at 2018-Feb-22 07:34 UTC. Time now 2018-Feb-22 16:55 UTC.
Position S 05°29' E 011°36'.

Length 64 m; draft 2.5 m.

Type: Passenger vessel. MMSI: 538004850.

Date/timePositionNaut miles runAvg speedWind from/ knotsBaromVisibWave heightAir tempDewpointWater temp
2018-Feb-22 07:34S 05°29' E 011°36'314.4
2018-Feb-22 07:19S 05°29' E 011°33'2 5.1
2018-Feb-22 06:58S 05°29' E 011°31'0 0.0
2018-Feb-22 06:28S 05°29' E 011°31'0 0.0
2018-Feb-22 06:01S 05°29' E 011°31'0 0.2
2018-Feb-22 05:30S 05°29' E 011°31'1 1.4
2018-Feb-22 04:59S 05°29' E 011°32'0 0.5
2018-Feb-22 04:30S 05°29' E 011°31'0 0.4
2018-Feb-22 03:59S 05°29' E 011°32'1 2.0
2018-Feb-22 03:29S 05°30' E 011°31'612.8
2018-Feb-22 03:00S 05°36' E 011°29'4 8.3
2018-Feb-22 02:30S 05°39' E 011°27'0 0.1
2018-Feb-22 01:59S 05°39' E 011°27'0 0.2
2018-Feb-22 01:30S 05°39' E 011°27'0 0.0
2018-Feb-22 01:00S 05°39' E 011°27'3 4.0
2018-Feb-22 00:20S 05°38' E 011°29'  
2018-Feb-18 14:05S 05°25' E 011°40'0 0.0
2018-Feb-18 14:00S 05°25' E 011°40'0 0.0
2018-Feb-18 13:30S 05°25' E 011°40'0 0.0
2018-Feb-18 12:58S 05°25' E 011°40'0 0.0
2018-Feb-18 12:27S 05°25' E 011°40'0 0.0
2018-Feb-18 12:00S 05°25' E 011°40'3213.3
2018-Feb-18 09:36S 05°24' E 012°12'0 0.0
2018-Feb-18 09:30S 05°24' E 012°12'24 1.3
2018-Feb-17 14:25S 05°12' E 011°50'1 0.2
2018-Feb-17 11:42S 05°13' E 011°51'0 1.0
2018-Feb-17 11:29S 05°13' E 011°51'2 0.1
2018-Feb-16 12:09S 05°14' E 011°50'14 0.3
2018-Feb-14 16:17S 05°25' E 011°41'2 5.3
2018-Feb-14 15:57S 05°25' E 011°40'0 0.0
2018-Feb-14 15:30S 05°25' E 011°40'0 0.0
2018-Feb-14 15:00S 05°25' E 011°40'0 0.1
2018-Feb-14 14:14S 05°25' E 011°40'0 0.0
2018-Feb-14 14:00S 05°25' E 011°40'0 0.0
2018-Feb-14 13:30S 05°25' E 011°40'0 0.0
2018-Feb-14 13:00S 05°25' E 011°40'0 0.0
2018-Feb-14 12:29S 05°25' E 011°40'0 0.1
2018-Feb-14 12:00S 05°25' E 011°40'2 3.3
2018-Feb-14 11:27S 05°24' E 011°38'1 1.7
2018-Feb-14 10:59S 05°24' E 011°39'2 4.4
2018-Feb-14 10:30S 05°22' E 011°39'0 0.7
2018-Feb-14 10:00S 05°22' E 011°40'0 0.3
2018-Feb-14 09:30S 05°22' E 011°40'0 0.7
2018-Feb-14 09:00S 05°22' E 011°39'1 1.1
2018-Feb-14 08:30S 05°22' E 011°39'0 0.7
2018-Feb-14 07:59S 05°22' E 011°39'1 1.6
2018-Feb-14 07:30S 05°22' E 011°38'1 1.6
2018-Feb-14 07:00S 05°22' E 011°39'0 0.5
2018-Feb-14 06:30S 05°22' E 011°39'0 0.1
2018-Feb-14 06:00S 05°22' E 011°39'1 1.0
2018-Feb-14 05:30S 05°22' E 011°39'0 0.5
2018-Feb-14 04:58S 05°22' E 011°39'1 1.9
2018-Feb-14 04:30S 05°21' E 011°39'1 2.3
2018-Feb-14 04:00S 05°21' E 011°40'1 2.4
2018-Feb-14 03:30S 05°22' E 011°41'18 0.5
2018-Feb-12 17:44S 05°37' E 011°31'518.4
2018-Feb-12 17:27S 05°33' E 011°33'818.5
2018-Feb-12 17:00S 05°26' E 011°37'4 8.2
2018-Feb-12 16:30S 05°22' E 011°40'0 0.8
2018-Feb-12 16:00S 05°22' E 011°40'  
Track history (hours):
 
Tides and Currents Weather Stations Pressure Air Temp Water Temp Dewpoint Dewpoint Depression Visibility Wind Speed Wind Dir Waves Ship Positions

Seacor Lynx

Last reported at 2018-Feb-22 07:34 UTC. Time now 2018-Feb-22 16:55 UTC.
Position S 05°29' E 011°36'.

Length 64 m; draft 2.5 m.

Type: Passenger vessel. MMSI: 538004850.

Date/timePositionNaut miles runAvg speedWind from/ knotsBaromVisibWave heightAir tempDewpointWater temp
2018-Feb-22 07:34S 05°29' E 011°36'314.4
2018-Feb-22 07:19S 05°29' E 011°33'2 5.1
2018-Feb-22 06:58S 05°29' E 011°31'0 0.0
2018-Feb-22 06:28S 05°29' E 011°31'0 0.0
2018-Feb-22 06:01S 05°29' E 011°31'0 0.2
2018-Feb-22 05:30S 05°29' E 011°31'1 1.4
2018-Feb-22 04:59S 05°29' E 011°32'0 0.5
2018-Feb-22 04:30S 05°29' E 011°31'0 0.4
2018-Feb-22 03:59S 05°29' E 011°32'1 2.0
2018-Feb-22 03:29S 05°30' E 011°31'612.8
2018-Feb-22 03:00S 05°36' E 011°29'4 8.3
2018-Feb-22 02:30S 05°39' E 011°27'0 0.1
2018-Feb-22 01:59S 05°39' E 011°27'0 0.2
2018-Feb-22 01:30S 05°39' E 011°27'0 0.0
2018-Feb-22 01:00S 05°39' E 011°27'3 4.0
2018-Feb-22 00:20S 05°38' E 011°29'  
2018-Feb-18 14:05S 05°25' E 011°40'0 0.0
2018-Feb-18 14:00S 05°25' E 011°40'0 0.0
2018-Feb-18 13:30S 05°25' E 011°40'0 0.0
2018-Feb-18 12:58S 05°25' E 011°40'0 0.0
2018-Feb-18 12:27S 05°25' E 011°40'0 0.0
2018-Feb-18 12:00S 05°25' E 011°40'3213.3
2018-Feb-18 09:36S 05°24' E 012°12'0 0.0
2018-Feb-18 09:30S 05°24' E 012°12'24 1.3
2018-Feb-17 14:25S 05°12' E 011°50'1 0.2
2018-Feb-17 11:42S 05°13' E 011°51'0 1.0
2018-Feb-17 11:29S 05°13' E 011°51'2 0.1
2018-Feb-16 12:09S 05°14' E 011°50'14 0.3
2018-Feb-14 16:17S 05°25' E 011°41'2 5.3
2018-Feb-14 15:57S 05°25' E 011°40'0 0.0
2018-Feb-14 15:30S 05°25' E 011°40'0 0.0
2018-Feb-14 15:00S 05°25' E 011°40'0 0.1
2018-Feb-14 14:14S 05°25' E 011°40'0 0.0
2018-Feb-14 14:00S 05°25' E 011°40'0 0.0
2018-Feb-14 13:30S 05°25' E 011°40'0 0.0
2018-Feb-14 13:00S 05°25' E 011°40'0 0.0
2018-Feb-14 12:29S 05°25' E 011°40'0 0.1
2018-Feb-14 12:00S 05°25' E 011°40'2 3.3
2018-Feb-14 11:27S 05°24' E 011°38'1 1.7
2018-Feb-14 10:59S 05°24' E 011°39'2 4.4
2018-Feb-14 10:30S 05°22' E 011°39'0 0.7
2018-Feb-14 10:00S 05°22' E 011°40'0 0.3
2018-Feb-14 09:30S 05°22' E 011°40'0 0.7
2018-Feb-14 09:00S 05°22' E 011°39'1 1.1
2018-Feb-14 08:30S 05°22' E 011°39'0 0.7
2018-Feb-14 07:59S 05°22' E 011°39'1 1.6
2018-Feb-14 07:30S 05°22' E 011°38'1 1.6
2018-Feb-14 07:00S 05°22' E 011°39'0 0.5
2018-Feb-14 06:30S 05°22' E 011°39'0 0.1
2018-Feb-14 06:00S 05°22' E 011°39'1 1.0
2018-Feb-14 05:30S 05°22' E 011°39'0 0.5
2018-Feb-14 04:58S 05°22' E 011°39'1 1.9
2018-Feb-14 04:30S 05°21' E 011°39'1 2.3
2018-Feb-14 04:00S 05°21' E 011°40'1 2.4
2018-Feb-14 03:30S 05°22' E 011°41'18 0.5
2018-Feb-12 17:44S 05°37' E 011°31'518.4
2018-Feb-12 17:27S 05°33' E 011°33'818.5
2018-Feb-12 17:00S 05°26' E 011°37'4 8.2
2018-Feb-12 16:30S 05°22' E 011°40'0 0.8
2018-Feb-12 16:00S 05°22' E 011°40'  

Dump ship's entire track history